sensor_id;sensor_type;location;lat;lon;timestamp;temperature;humidity
74869;DHT22;63419;42.262;12.210;2023-04-01T00:01:55;11.10;99.90
74869;DHT22;63419;42.262;12.210;2023-04-01T00:04:23;11.20;99.90
74869;DHT22;63419;42.262;12.210;2023-04-01T00:06:51;11.20;99.90
74869;DHT22;63419;42.262;12.210;2023-04-01T00:09:18;11.10;99.90
74869;DHT22;63419;42.262;12.210;2023-04-01T00:11:46;11.10;99.90
74869;DHT22;63419;42.262;12.210;2023-04-01T00:14:20;11.20;99.90
74869;DHT22;63419;42.262;12.210;2023-04-01T00:16:53;11.20;99.90
74869;DHT22;63419;42.262;12.210;2023-04-01T00:19:22;11.00;99.90
74869;DHT22;63419;42.262;12.210;2023-04-01T00:21:53;11.00;99.90
74869;DHT22;63419;42.262;12.210;2023-04-01T00:24:22;11.00;99.90
74869;DHT22;63419;42.262;12.210;2023-04-01T00:26:50;11.00;99.90
74869;DHT22;63419;42.262;12.210;2023-04-01T00:29:22;11.10;99.90
74869;DHT22;63419;42.262;12.210;2023-04-01T00:32:03;11.20;99.90
74869;DHT22;63419;42.262;12.210;2023-04-01T00:34:31;11.30;99.90
74869;DHT22;63419;42.262;12.210;2023-04-01T00:37:02;11.30;99.90
74869;DHT22;63419;42.262;12.210;2023-04-01T00:39:33;11.30;99.90
74869;DHT22;63419;42.262;12.210;2023-04-01T00:42:22;11.40;99.90
74869;DHT22;63419;42.262;12.210;2023-04-01T00:44:54;11.30;99.90
74869;DHT22;63419;42.262;12.210;2023-04-01T00:47:26;11.20;99.90
74869;DHT22;63419;42.262;12.210;2023-04-01T00:50:02;11.20;99.90
74869;DHT22;63419;42.262;12.210;2023-04-01T00:52:52;11.10;99.90
74869;DHT22;63419;42.262;12.210;2023-04-01T00:55:41;11.10;99.90
74869;DHT22;63419;42.262;12.210;2023-04-01T00:58:17;11.10;99.90
74869;DHT22;63419;42.262;12.210;2023-04-01T01:00:54;11.10;99.90
74869;DHT22;63419;42.262;12.210;2023-04-01T01:03:24;11.10;99.90
74869;DHT22;63419;42.262;12.210;2023-04-01T01:12:20;11.20;99.90
74869;DHT22;63419;42.262;12.210;2023-04-01T01:27:02;10.90;99.90
74869;DHT22;63419;42.262;12.210;2023-04-01T01:33:12;10.90;99.90
74869;DHT22;63419;42.262;12.210;2023-04-01T01:36:04;10.90;99.90
74869;DHT22;63419;42.262;12.210;2023-04-01T01:38:36;10.90;99.90
74869;DHT22;63419;42.262;12.210;2023-04-01T01:41:07;10.90;99.90
74869;DHT22;63419;42.262;12.210;2023-04-01T01:43:40;11.00;99.90
74869;DHT22;63419;42.262;12.210;2023-04-01T01:46:21;11.00;99.90
74869;DHT22;63419;42.262;12.210;2023-04-01T01:48:58;11.00;99.90
74869;DHT22;63419;42.262;12.210;2023-04-01T01:51:27;10.90;99.90
74869;DHT22;63419;42.262;12.210;2023-04-01T01:53:58;10.90;99.90
74869;DHT22;63419;42.262;12.210;2023-04-01T01:56:29;10.90;99.90
74869;DHT22;63419;42.262;12.210;2023-04-01T01:59:02;10.90;99.90
74869;DHT22;63419;42.262;12.210;2023-04-01T02:01:42;10.90;99.90
74869;DHT22;63419;42.262;12.210;2023-04-01T02:04:18;10.90;99.90
74869;DHT22;63419;42.262;12.210;2023-04-01T02:07:02;10.80;99.90
74869;DHT22;63419;42.262;12.210;2023-04-01T02:09:31;10.90;99.90
74869;DHT22;63419;42.262;12.210;2023-04-01T02:12:12;10.80;99.90
74869;DHT22;63419;42.262;12.210;2023-04-01T02:14:53;10.70;99.90
74869;DHT22;63419;42.262;12.210;2023-04-01T02:17:32;10.60;99.90
74869;DHT22;63419;42.262;12.210;2023-04-01T02:20:11;10.70;99.90
74869;DHT22;63419;42.262;12.210;2023-04-01T02:22:49;10.70;99.90
74869;DHT22;63419;42.262;12.210;2023-04-01T02:25:25;10.70;99.90
74869;DHT22;63419;42.262;12.210;2023-04-01T02:27:58;10.70;99.90
74869;DHT22;63419;42.262;12.210;2023-04-01T02:30:32;10.60;99.90
74869;DHT22;63419;42.262;12.210;2023-04-01T02:33:21;10.60;99.90
74869;DHT22;63419;42.262;12.210;2023-04-01T02:35:50;10.50;99.90
74869;DHT22;63419;42.262;12.210;2023-04-01T02:38:20;10.50;99.90
74869;DHT22;63419;42.262;12.210;2023-04-01T02:41:00;10.50;99.90
74869;DHT22;63419;42.262;12.210;2023-04-01T02:43:29;10.50;99.90
74869;DHT22;63419;42.262;12.210;2023-04-01T02:46:00;10.30;99.90
74869;DHT22;63419;42.262;12.210;2023-04-01T02:48:41;10.20;99.90
74869;DHT22;63419;42.262;12.210;2023-04-01T02:51:09;10.00;99.90
74869;DHT22;63419;42.262;12.210;2023-04-01T02:53:36;10.00;99.90
74869;DHT22;63419;42.262;12.210;2023-04-01T02:56:11;9.90;99.90
74869;DHT22;63419;42.262;12.210;2023-04-01T02:58:39;9.90;99.90
74869;DHT22;63419;42.262;12.210;2023-04-01T03:01:10;9.90;99.90
74869;DHT22;63419;42.262;12.210;2023-04-01T03:03:44;9.90;99.90
74869;DHT22;63419;42.262;12.210;2023-04-01T03:06:16;9.90;99.90
74869;DHT22;63419;42.262;12.210;2023-04-01T03:08:50;10.00;99.90
74869;DHT22;63419;42.262;12.210;2023-04-01T03:11:20;10.20;99.90
74869;DHT22;63419;42.262;12.210;2023-04-01T03:13:49;10.20;99.90
74869;DHT22;63419;42.262;12.210;2023-04-01T03:16:16;10.40;99.90
74869;DHT22;63419;42.262;12.210;2023-04-01T03:18:49;10.60;99.90
74869;DHT22;63419;42.262;12.210;2023-04-01T03:21:19;10.70;99.90
74869;DHT22;63419;42.262;12.210;2023-04-01T03:23:48;10.70;99.90
74869;DHT22;63419;42.262;12.210;2023-04-01T03:26:19;10.70;99.90
74869;DHT22;63419;42.262;12.210;2023-04-01T03:28:49;10.50;99.90
74869;DHT22;63419;42.262;12.210;2023-04-01T03:31:19;10.40;99.90
74869;DHT22;63419;42.262;12.210;2023-04-01T03:33:49;10.30;99.90
74869;DHT22;63419;42.262;12.210;2023-04-01T03:36:17;10.00;99.90
74869;DHT22;63419;42.262;12.210;2023-04-01T03:38:45;9.40;99.90
74869;DHT22;63419;42.262;12.210;2023-04-01T03:41:16;9.00;99.90
74869;DHT22;63419;42.262;12.210;2023-04-01T03:43:45;9.00;99.90
74869;DHT22;63419;42.262;12.210;2023-04-01T03:46:18;8.90;99.90
74869;DHT22;63419;42.262;12.210;2023-04-01T03:48:46;8.80;99.90
74869;DHT22;63419;42.262;12.210;2023-04-01T03:51:19;8.80;99.90
74869;DHT22;63419;42.262;12.210;2023-04-01T03:53:47;8.60;99.90
74869;DHT22;63419;42.262;12.210;2023-04-01T03:56:15;8.50;99.90
74869;DHT22;63419;42.262;12.210;2023-04-01T03:58:46;8.40;99.90
74869;DHT22;63419;42.262;12.210;2023-04-01T04:01:21;8.20;99.90
74869;DHT22;63419;42.262;12.210;2023-04-01T04:03:51;8.20;99.90
74869;DHT22;63419;42.262;12.210;2023-04-01T04:06:20;8.30;99.90
74869;DHT22;63419;42.262;12.210;2023-04-01T04:08:52;8.40;99.90
74869;DHT22;63419;42.262;12.210;2023-04-01T04:11:22;8.40;99.90
74869;DHT22;63419;42.262;12.210;2023-04-01T04:13:49;8.50;99.90
74869;DHT22;63419;42.262;12.210;2023-04-01T04:16:25;8.50;99.90
74869;DHT22;63419;42.262;12.210;2023-04-01T04:18:53;8.50;99.90
74869;DHT22;63419;42.262;12.210;2023-04-01T04:21:20;8.30;99.90
74869;DHT22;63419;42.262;12.210;2023-04-01T04:23:48;8.30;99.90
74869;DHT22;63419;42.262;12.210;2023-04-01T04:26:31;8.20;99.90
74869;DHT22;63419;42.262;12.210;2023-04-01T04:28:58;8.00;99.90
74869;DHT22;63419;42.262;12.210;2023-04-01T04:31:26;8.00;99.90
74869;DHT22;63419;42.262;12.210;2023-04-01T04:33:59;8.00;99.90
74869;DHT22;63419;42.262;12.210;2023-04-01T04:36:32;8.00;99.90
74869;DHT22;63419;42.262;12.210;2023-04-01T04:38:59;8.00;99.90
74869;DHT22;63419;42.262;12.210;2023-04-01T04:41:28;8.00;99.90
74869;DHT22;63419;42.262;12.210;2023-04-01T04:43:59;8.00;99.90
74869;DHT22;63419;42.262;12.210;2023-04-01T04:46:29;8.00;99.90
74869;DHT22;63419;42.262;12.210;2023-04-01T04:48:57;8.00;99.90
74869;DHT22;63419;42.262;12.210;2023-04-01T04:51:33;8.00;99.90
74869;DHT22;63419;42.262;12.210;2023-04-01T04:54:06;7.90;99.90
74869;DHT22;63419;42.262;12.210;2023-04-01T04:56:33;8.00;99.90
74869;DHT22;63419;42.262;12.210;2023-04-01T04:59:02;8.00;99.90
74869;DHT22;63419;42.262;12.210;2023-04-01T05:01:29;8.10;99.90
74869;DHT22;63419;42.262;12.210;2023-04-01T05:04:03;8.10;99.90
74869;DHT22;63419;42.262;12.210;2023-04-01T05:06:30;8.00;99.90
74869;DHT22;63419;42.262;12.210;2023-04-01T05:09:04;8.30;99.90
74869;DHT22;63419;42.262;12.210;2023-04-01T05:11:39;8.30;99.90
74869;DHT22;63419;42.262;12.210;2023-04-01T05:14:16;8.70;99.90
74869;DHT22;63419;42.262;12.210;2023-04-01T05:16:43;8.60;99.90
74869;DHT22;63419;42.262;12.210;2023-04-01T05:19:26;8.40;99.90
74869;DHT22;63419;42.262;12.210;2023-04-01T05:21:54;8.50;99.90
74869;DHT22;63419;42.262;12.210;2023-04-01T05:24:22;8.70;99.90
74869;DHT22;63419;42.262;12.210;2023-04-01T05:26:49;8.90;99.90
74869;DHT22;63419;42.262;12.210;2023-04-01T05:29:22;9.00;99.90
74869;DHT22;63419;42.262;12.210;2023-04-01T05:32:12;9.00;99.90
74869;DHT22;63419;42.262;12.210;2023-04-01T05:34:54;8.80;99.90
74869;DHT22;63419;42.262;12.210;2023-04-01T05:37:25;8.90;99.90
74869;DHT22;63419;42.262;12.210;2023-04-01T05:39:59;9.00;99.90
74869;DHT22;63419;42.262;12.210;2023-04-01T05:42:27;8.90;99.90
74869;DHT22;63419;42.262;12.210;2023-04-01T05:44:56;9.00;99.90
74869;DHT22;63419;42.262;12.210;2023-04-01T05:47:30;9.10;99.90
74869;DHT22;63419;42.262;12.210;2023-04-01T05:49:59;9.10;99.90
74869;DHT22;63419;42.262;12.210;2023-04-01T05:52:29;9.10;99.90
74869;DHT22;63419;42.262;12.210;2023-04-01T05:55:00;9.00;99.90
74869;DHT22;63419;42.262;12.210;2023-04-01T05:57:31;9.20;99.90
74869;DHT22;63419;42.262;12.210;2023-04-01T06:00:08;9.10;99.90
74869;DHT22;63419;42.262;12.210;2023-04-01T06:02:43;8.90;99.90
74869;DHT22;63419;42.262;12.210;2023-04-01T06:05:18;8.90;99.90
74869;DHT22;63419;42.262;12.210;2023-04-01T06:08:08;8.90;99.90
74869;DHT22;63419;42.262;12.210;2023-04-01T06:16:48;9.00;99.90
74869;DHT22;63419;42.262;12.210;2023-04-01T06:46:53;10.40;99.90
74869;DHT22;63419;42.262;12.210;2023-04-01T06:49:48;10.40;99.90
74869;DHT22;63419;42.262;12.210;2023-04-01T06:55:38;10.50;99.90
74869;DHT22;63419;42.262;12.210;2023-04-01T06:58:39;10.60;99.90
74869;DHT22;63419;42.262;12.210;2023-04-01T07:01:18;10.60;99.90
74869;DHT22;63419;42.262;12.210;2023-04-01T07:04:00;10.70;99.90
74869;DHT22;63419;42.262;12.210;2023-04-01T07:06:59;10.70;99.90
74869;DHT22;63419;42.262;12.210;2023-04-01T07:09:39;10.80;99.90
74869;DHT22;63419;42.262;12.210;2023-04-01T07:15:21;11.10;99.90
74869;DHT22;63419;42.262;12.210;2023-04-01T07:18:06;11.30;99.90
74869;DHT22;63419;42.262;12.210;2023-04-01T07:21:04;11.70;99.90
74869;DHT22;63419;42.262;12.210;2023-04-01T07:23:49;11.30;99.90
74869;DHT22;63419;42.262;12.210;2023-04-01T07:26:29;11.40;99.90
74869;DHT22;63419;42.262;12.210;2023-04-01T07:28:56;11.40;99.90
74869;DHT22;63419;42.262;12.210;2023-04-01T07:34:50;11.80;99.90
74869;DHT22;63419;42.262;12.210;2023-04-01T07:44:14;11.90;99.90
74869;DHT22;63419;42.262;12.210;2023-04-01T07:46:56;11.80;99.90
74869;DHT22;63419;42.262;12.210;2023-04-01T07:56:18;12.20;99.90
74869;DHT22;63419;42.262;12.210;2023-04-01T08:05:59;12.40;99.90
74869;DHT22;63419;42.262;12.210;2023-04-01T08:08:59;12.40;99.90
74869;DHT22;63419;42.262;12.210;2023-04-01T08:21:08;12.50;99.90
74869;DHT22;63419;42.262;12.210;2023-04-01T08:23:54;12.80;99.90
74869;DHT22;63419;42.262;12.210;2023-04-01T08:26:37;12.90;99.90
74869;DHT22;63419;42.262;12.210;2023-04-01T08:29:18;12.50;99.90
74869;DHT22;63419;42.262;12.210;2023-04-01T08:32:18;12.60;99.90
74869;DHT22;63419;42.262;12.210;2023-04-01T08:38:34;12.60;99.90
74869;DHT22;63419;42.262;12.210;2023-04-01T08:57:39;13.00;99.90
74869;DHT22;63419;42.262;12.210;2023-04-01T09:00:20;13.10;99.90
74869;DHT22;63419;42.262;12.210;2023-04-01T09:06:03;13.20;99.90
74869;DHT22;63419;42.262;12.210;2023-04-01T09:20:46;13.80;99.90
74869;DHT22;63419;42.262;12.210;2023-04-01T09:53:34;14.50;99.90
74869;DHT22;63419;42.262;12.210;2023-04-01T10:16:01;16.20;99.90
74869;DHT22;63419;42.262;12.210;2023-04-01T10:18:18;15.40;99.90
74869;DHT22;63419;42.262;12.210;2023-04-01T10:26:53;15.50;99.90
74869;DHT22;63419;42.262;12.210;2023-04-01T10:30:02;15.90;99.90
74869;DHT22;63419;42.262;12.210;2023-04-01T10:33:15;15.30;99.90
74869;DHT22;63419;42.262;12.210;2023-04-01T10:43:08;16.60;99.90
74869;DHT22;63419;42.262;12.210;2023-04-01T11:43:54;17.00;99.90
74869;DHT22;63419;42.262;12.210;2023-04-01T11:46:39;16.30;99.90
74869;DHT22;63419;42.262;12.210;2023-04-01T11:49:52;15.60;99.90
74869;DHT22;63419;42.262;12.210;2023-04-01T12:08:04;16.10;99.90
74869;DHT22;63419;42.262;12.210;2023-04-01T12:11:24;15.70;99.90
74869;DHT22;63419;42.262;12.210;2023-04-01T12:14:27;16.80;99.90
74869;DHT22;63419;42.262;12.210;2023-04-01T12:17:07;17.00;99.90
74869;DHT22;63419;42.262;12.210;2023-04-01T12:32:15;16.60;99.90
74869;DHT22;63419;42.262;12.210;2023-04-01T12:41:03;16.50;99.90
74869;DHT22;63419;42.262;12.210;2023-04-01T13:05:20;15.80;99.90
74869;DHT22;63419;42.262;12.210;2023-04-01T13:08:33;17.00;99.90
74869;DHT22;63419;42.262;12.210;2023-04-01T13:11:41;16.90;99.90
74869;DHT22;63419;42.262;12.210;2023-04-01T13:14:44;17.00;99.90
74869;DHT22;63419;42.262;12.210;2023-04-01T13:17:28;17.10;99.90
74869;DHT22;63419;42.262;12.210;2023-04-01T13:23:09;16.60;99.90
74869;DHT22;63419;42.262;12.210;2023-04-01T13:26:10;15.80;99.90
74869;DHT22;63419;42.262;12.210;2023-04-01T13:29:57;16.50;99.90
74869;DHT22;63419;42.262;12.210;2023-04-01T13:32:50;16.00;99.90
74869;DHT22;63419;42.262;12.210;2023-04-01T13:35:47;16.10;99.90
74869;DHT22;63419;42.262;12.210;2023-04-01T13:42:04;16.30;99.90
74869;DHT22;63419;42.262;12.210;2023-04-01T13:45:24;16.10;99.90
74869;DHT22;63419;42.262;12.210;2023-04-01T14:02:39;16.10;99.90
74869;DHT22;63419;42.262;12.210;2023-04-01T14:12:17;17.70;99.90
74869;DHT22;63419;42.262;12.210;2023-04-01T14:49:05;17.30;99.90
74869;DHT22;63419;42.262;12.210;2023-04-01T14:51:48;17.20;99.90
74869;DHT22;63419;42.262;12.210;2023-04-01T14:54:40;16.30;99.90
74869;DHT22;63419;42.262;12.210;2023-04-01T14:57:29;16.40;99.90
74869;DHT22;63419;42.262;12.210;2023-04-01T15:00:12;16.70;99.90
74869;DHT22;63419;42.262;12.210;2023-04-01T15:05:47;17.20;98.70
74869;DHT22;63419;42.262;12.210;2023-04-01T15:08:41;17.00;99.90
74869;DHT22;63419;42.262;12.210;2023-04-01T15:17:39;17.40;99.30
74869;DHT22;63419;42.262;12.210;2023-04-01T15:20:40;16.40;99.90
74869;DHT22;63419;42.262;12.210;2023-04-01T15:38:47;15.70;99.90
74869;DHT22;63419;42.262;12.210;2023-04-01T15:42:04;16.20;99.90
74869;DHT22;63419;42.262;12.210;2023-04-01T15:47:59;16.10;99.90
74869;DHT22;63419;42.262;12.210;2023-04-01T15:50:51;16.40;99.90
74869;DHT22;63419;42.262;12.210;2023-04-01T16:00:15;15.50;99.90
74869;DHT22;63419;42.262;12.210;2023-04-01T16:13:11;14.40;99.90
74869;DHT22;63419;42.262;12.210;2023-04-01T16:33:02;13.60;99.90
74869;DHT22;63419;42.262;12.210;2023-04-01T16:38:33;13.80;99.90
74869;DHT22;63419;42.262;12.210;2023-04-01T16:41:28;13.60;99.90
74869;DHT22;63419;42.262;12.210;2023-04-01T16:44:24;13.70;99.90
74869;DHT22;63419;42.262;12.210;2023-04-01T16:47:19;13.60;99.90
74869;DHT22;63419;42.262;12.210;2023-04-01T16:50:28;13.60;99.90
74869;DHT22;63419;42.262;12.210;2023-04-01T16:55:50;13.30;99.90
74869;DHT22;63419;42.262;12.210;2023-04-01T16:58:37;13.10;99.90
74869;DHT22;63419;42.262;12.210;2023-04-01T17:01:36;12.90;99.90
74869;DHT22;63419;42.262;12.210;2023-04-01T17:05:05;12.90;99.90
74869;DHT22;63419;42.262;12.210;2023-04-01T17:13:35;12.50;99.90
74869;DHT22;63419;42.262;12.210;2023-04-01T17:16:24;12.70;99.90
74869;DHT22;63419;42.262;12.210;2023-04-01T17:22:22;12.30;99.90
74869;DHT22;63419;42.262;12.210;2023-04-01T17:33:36;12.20;99.90
74869;DHT22;63419;42.262;12.210;2023-04-01T17:37:18;12.00;99.90
74869;DHT22;63419;42.262;12.210;2023-04-01T17:43:19;11.70;99.90
74869;DHT22;63419;42.262;12.210;2023-04-01T17:45:56;11.70;99.90
74869;DHT22;63419;42.262;12.210;2023-04-01T18:15:14;11.70;99.90
74869;DHT22;63419;42.262;12.210;2023-04-01T18:27:16;11.50;99.90
74869;DHT22;63419;42.262;12.210;2023-04-01T18:30:13;11.30;99.90
74869;DHT22;63419;42.262;12.210;2023-04-01T18:33:09;11.10;99.90
74869;DHT22;63419;42.262;12.210;2023-04-01T18:39:19;11.00;99.90
74869;DHT22;63419;42.262;12.210;2023-04-01T18:45:40;10.90;99.90
74869;DHT22;63419;42.262;12.210;2023-04-01T18:48:44;10.90;99.90
74869;DHT22;63419;42.262;12.210;2023-04-01T18:54:27;10.80;99.90
74869;DHT22;63419;42.262;12.210;2023-04-01T18:57:08;10.80;99.90
74869;DHT22;63419;42.262;12.210;2023-04-01T18:59:49;10.80;99.90
74869;DHT22;63419;42.262;12.210;2023-04-01T19:03:00;10.80;99.90
74869;DHT22;63419;42.262;12.210;2023-04-01T19:05:40;10.70;99.90
74869;DHT22;63419;42.262;12.210;2023-04-01T19:08:32;10.70;99.90
74869;DHT22;63419;42.262;12.210;2023-04-01T19:11:14;10.70;99.90
74869;DHT22;63419;42.262;12.210;2023-04-01T19:14:24;10.60;99.90
74869;DHT22;63419;42.262;12.210;2023-04-01T19:45:26;10.30;99.90
74869;DHT22;63419;42.262;12.210;2023-04-01T19:48:47;10.30;99.90
74869;DHT22;63419;42.262;12.210;2023-04-01T19:52:00;10.30;99.90
74869;DHT22;63419;42.262;12.210;2023-04-01T19:57:38;10.50;99.90
74869;DHT22;63419;42.262;12.210;2023-04-01T20:03:03;10.60;99.90
74869;DHT22;63419;42.262;12.210;2023-04-01T20:05:49;10.40;99.90
74869;DHT22;63419;42.262;12.210;2023-04-01T20:15:19;10.20;99.90
74869;DHT22;63419;42.262;12.210;2023-04-01T20:18:01;9.90;99.90
74869;DHT22;63419;42.262;12.210;2023-04-01T20:23:59;9.00;99.90
74869;DHT22;63419;42.262;12.210;2023-04-01T20:27:20;9.10;99.90
74869;DHT22;63419;42.262;12.210;2023-04-01T20:30:21;8.60;99.90
74869;DHT22;63419;42.262;12.210;2023-04-01T20:41:34;8.40;99.90
74869;DHT22;63419;42.262;12.210;2023-04-01T20:53:59;9.20;99.90
74869;DHT22;63419;42.262;12.210;2023-04-01T21:03:23;9.40;99.90
74869;DHT22;63419;42.262;12.210;2023-04-01T21:09:21;9.70;99.90
74869;DHT22;63419;42.262;12.210;2023-04-01T21:33:49;9.60;99.90
74869;DHT22;63419;42.262;12.210;2023-04-01T21:46:29;8.00;99.90
74869;DHT22;63419;42.262;12.210;2023-04-01T21:52:44;7.70;99.90
74869;DHT22;63419;42.262;12.210;2023-04-01T22:06:06;7.80;99.90
74869;DHT22;63419;42.262;12.210;2023-04-01T22:12:08;7.70;99.90
74869;DHT22;63419;42.262;12.210;2023-04-01T22:18:23;7.70;99.90
74869;DHT22;63419;42.262;12.210;2023-04-01T22:21:07;7.70;99.90
74869;DHT22;63419;42.262;12.210;2023-04-01T22:33:09;8.20;99.90
74869;DHT22;63419;42.262;12.210;2023-04-01T22:35:49;8.20;99.90
74869;DHT22;63419;42.262;12.210;2023-04-01T22:51:38;8.50;99.90
74869;DHT22;63419;42.262;12.210;2023-04-01T22:54:39;8.60;99.90
74869;DHT22;63419;42.262;12.210;2023-04-01T22:57:44;8.50;99.90
74869;DHT22;63419;42.262;12.210;2023-04-01T23:00:27;8.30;99.90
74869;DHT22;63419;42.262;12.210;2023-04-01T23:05:58;8.00;99.90
74869;DHT22;63419;42.262;12.210;2023-04-01T23:10:59;7.50;99.90
74869;DHT22;63419;42.262;12.210;2023-04-01T23:13:43;7.20;99.90
74869;DHT22;63419;42.262;12.210;2023-04-01T23:16:20;7.10;99.90
74869;DHT22;63419;42.262;12.210;2023-04-01T23:19:11;7.00;99.90
74869;DHT22;63419;42.262;12.210;2023-04-01T23:21:52;7.00;99.90
74869;DHT22;63419;42.262;12.210;2023-04-01T23:24:59;7.00;99.90
74869;DHT22;63419;42.262;12.210;2023-04-01T23:27:51;7.00;99.90
74869;DHT22;63419;42.262;12.210;2023-04-01T23:38:40;6.60;99.90
74869;DHT22;63419;42.262;12.210;2023-04-01T23:41:21;6.60;99.90
74869;DHT22;63419;42.262;12.210;2023-04-01T23:44:03;6.60;99.90
74869;DHT22;63419;42.262;12.210;2023-04-01T23:46:42;6.60;99.90
74869;DHT22;63419;42.262;12.210;2023-04-01T23:49:19;6.70;99.90
74869;DHT22;63419;42.262;12.210;2023-04-01T23:51:59;6.70;99.90
74869;DHT22;63419;42.262;12.210;2023-04-01T23:54:43;6.60;99.90
74869;DHT22;63419;42.262;12.210;2023-04-01T23:57:15;6.70;99.90
